createdAt,value
2024-05-09T00:00:42.092Z,15.07
2024-05-09T00:03:11.055Z,15.06
2024-05-09T00:05:43.572Z,14.95
2024-05-09T00:08:11.847Z,14.89
2024-05-09T00:11:58.376Z,13.81
2024-05-09T00:14:25.941Z,15.13
2024-05-09T00:16:53.403Z,14.93
2024-05-09T00:19:21.328Z,14.98
2024-05-09T00:21:48.841Z,15.10
2024-05-09T00:24:16.130Z,15.05
2024-05-09T00:26:43.769Z,14.75
2024-05-09T00:29:11.257Z,14.76
2024-05-09T00:31:38.532Z,14.82
2024-05-09T00:34:06.035Z,14.74
2024-05-09T00:36:34.789Z,14.57
2024-05-09T00:39:02.189Z,14.54
2024-05-09T00:41:30.159Z,14.46
2024-05-09T00:43:59.507Z,14.55
2024-05-09T00:46:28.289Z,14.62
2024-05-09T00:48:55.780Z,14.58
2024-05-09T00:51:23.217Z,14.61
2024-05-09T00:53:50.462Z,14.70
2024-05-09T00:56:17.998Z,14.83
2024-05-09T00:58:45.895Z,15.08
2024-05-09T01:01:13.486Z,15.15
2024-05-09T01:03:41.096Z,15.20
2024-05-09T01:06:10.075Z,15.36
2024-05-09T01:08:37.554Z,15.31
2024-05-09T01:11:06.561Z,15.39
2024-05-09T01:13:34.044Z,15.47
2024-05-09T01:16:01.426Z,15.66
2024-05-09T01:18:30.174Z,15.78
2024-05-09T01:20:58.733Z,15.91
2024-05-09T01:23:26.125Z,15.95
2024-05-09T01:25:53.672Z,15.98
2024-05-09T01:28:21.159Z,15.95
2024-05-09T01:30:49.044Z,16.00
2024-05-09T01:33:16.736Z,15.97
2024-05-09T01:35:46.490Z,16.06
2024-05-09T01:38:17.255Z,15.99
2024-05-09T01:40:44.988Z,15.79
2024-05-09T01:43:12.587Z,15.74
2024-05-09T01:45:40.354Z,15.70
2024-05-09T01:48:08.724Z,15.66
2024-05-09T01:50:40.828Z,15.65
2024-05-09T01:53:10.869Z,15.71
2024-05-09T01:55:38.648Z,15.74
2024-05-09T01:58:07.633Z,15.66
2024-05-09T02:00:41.760Z,15.73
2024-05-09T02:03:14.719Z,15.85
2024-05-09T02:05:45.323Z,15.77
2024-05-09T02:08:17.708Z,15.81
2024-05-09T02:10:46.778Z,15.81
2024-05-09T02:13:14.942Z,15.59
2024-05-09T02:15:42.315Z,15.58
2024-05-09T02:18:09.886Z,15.64
2024-05-09T02:20:38.697Z,15.76
2024-05-09T02:23:06.747Z,15.77
2024-05-09T02:25:34.889Z,15.76
2024-05-09T02:28:02.501Z,15.71
2024-05-09T02:30:39.251Z,15.71
2024-05-09T02:33:11.306Z,15.61
2024-05-09T02:35:40.855Z,15.68
2024-05-09T02:38:11.481Z,15.70
2024-05-09T02:40:40.753Z,15.66
2024-05-09T02:43:12.359Z,15.77
2024-05-09T02:45:40.662Z,15.90
2024-05-09T02:48:12.679Z,16.00
2024-05-09T02:50:41.506Z,15.96
2024-05-09T02:53:10.529Z,15.98
2024-05-09T02:55:38.834Z,16.01
2024-05-09T02:58:07.138Z,15.97
2024-05-09T03:00:39.183Z,16.02
2024-05-09T03:03:14.195Z,16.17
2024-05-09T03:05:43.919Z,16.29
2024-05-09T03:08:11.508Z,16.25
2024-05-09T03:10:39.704Z,16.43
2024-05-09T03:13:09.664Z,16.59
2024-05-09T03:15:37.210Z,16.76
2024-05-09T03:18:05.941Z,16.74
2024-05-09T03:20:35.723Z,16.82
2024-05-09T03:23:06.084Z,16.86
2024-05-09T03:25:34.062Z,17.42
2024-05-09T03:28:03.725Z,17.84
2024-05-09T03:30:39.747Z,18.27
2024-05-09T03:33:15.101Z,18.52
2024-05-09T03:35:45.530Z,18.64
2024-05-09T03:38:13.479Z,18.82
2024-05-09T03:40:45.402Z,19.18
2024-05-09T03:43:14.014Z,19.43
2024-05-09T03:45:47.661Z,19.60
2024-05-09T03:48:15.255Z,19.86
2024-05-09T03:50:42.816Z,19.75
2024-05-09T03:53:11.070Z,20.14
2024-05-09T03:55:39.786Z,20.54
2024-05-09T03:58:12.539Z,20.56
2024-05-09T04:00:41.273Z,20.34
2024-05-09T04:03:11.124Z,20.79
2024-05-09T04:05:42.322Z,21.05
2024-05-09T04:08:11.176Z,21.37
2024-05-09T04:10:39.259Z,21.41
2024-05-09T04:13:06.771Z,21.65
2024-05-09T04:15:34.092Z,21.57
2024-05-09T04:18:02.675Z,21.28
2024-05-09T04:20:37.775Z,21.13
2024-05-09T04:23:10.660Z,21.39
2024-05-09T04:25:38.292Z,21.69
2024-05-09T04:28:06.708Z,21.99
2024-05-09T04:30:38.734Z,21.96
2024-05-09T04:33:10.746Z,21.99
2024-05-09T04:35:42.145Z,22.19
2024-05-09T04:38:09.980Z,22.47
2024-05-09T04:40:38.034Z,22.70
2024-05-09T04:43:06.212Z,23.13
2024-05-09T04:45:34.012Z,23.13
2024-05-09T04:48:02.027Z,23.03
2024-05-09T04:50:36.140Z,23.13
2024-05-09T04:53:08.373Z,23.24
2024-05-09T04:55:37.200Z,23.53
2024-05-09T04:58:06.686Z,23.62
2024-05-09T05:00:36.935Z,23.70
2024-05-09T05:03:12.882Z,24.05
2024-05-09T05:05:43.605Z,24.24
2024-05-09T05:08:14.938Z,24.01
2024-05-09T05:10:42.660Z,23.73
2024-05-09T05:13:19.970Z,23.69
2024-05-09T05:15:49.952Z,23.80
2024-05-09T05:18:19.787Z,24.01
2024-05-09T05:20:47.815Z,23.95
2024-05-09T05:23:19.288Z,23.97
2024-05-09T05:25:47.766Z,24.00
2024-05-09T05:28:18.891Z,24.07
2024-05-09T05:30:47.233Z,24.25
2024-05-09T05:33:15.960Z,24.58
2024-05-09T05:35:43.847Z,24.89
2024-05-09T05:38:12.399Z,25.15
2024-05-09T05:40:40.784Z,25.51
2024-05-09T05:43:10.028Z,25.83
2024-05-09T05:45:39.116Z,25.84
2024-05-09T05:48:07.933Z,25.82
2024-05-09T05:50:37.683Z,25.89
2024-05-09T05:53:06.900Z,25.89
2024-05-09T05:55:35.154Z,25.86
2024-05-09T05:58:02.555Z,25.67
2024-05-09T06:00:37.613Z,25.60
2024-05-09T06:03:08.841Z,25.76
2024-05-09T06:05:37.411Z,25.97
2024-05-09T06:08:06.122Z,26.06
2024-05-09T06:10:38.581Z,26.21
2024-05-09T06:13:10.699Z,26.28
2024-05-09T06:15:38.576Z,26.54
2024-05-09T06:18:08.963Z,26.76
2024-05-09T06:20:38.291Z,27.07
2024-05-09T06:23:06.690Z,27.36
2024-05-09T06:25:35.767Z,27.72
2024-05-09T06:28:03.502Z,27.77
2024-05-09T06:30:38.645Z,27.70
2024-05-09T06:33:10.495Z,27.72
2024-05-09T06:35:39.536Z,28.02
2024-05-09T06:38:10.228Z,27.94
2024-05-09T06:40:41.135Z,27.81
2024-05-09T06:43:15.024Z,28.25
2024-05-09T06:45:45.834Z,28.43
2024-05-09T06:48:14.889Z,28.16
2024-05-09T06:50:42.409Z,28.32
2024-05-09T06:53:09.981Z,28.50
2024-05-09T06:55:37.833Z,28.78
2024-05-09T06:58:05.842Z,28.96
2024-05-09T07:00:38.895Z,29.20
2024-05-09T07:03:09.289Z,29.07
2024-05-09T07:05:37.320Z,29.34
2024-05-09T07:08:05.798Z,29.65
2024-05-09T07:10:35.567Z,29.80
2024-05-09T07:13:11.053Z,30.11
2024-05-09T07:15:39.250Z,30.15
2024-05-09T07:18:15.562Z,30.32
2024-05-09T07:20:43.555Z,30.40
2024-05-09T07:23:11.906Z,30.45
2024-05-09T07:25:39.781Z,30.21
2024-05-09T07:28:25.225Z,29.39
2024-05-09T07:30:53.860Z,28.70
2024-05-09T07:33:23.079Z,28.36
2024-05-09T07:35:52.092Z,28.37
2024-05-09T07:38:19.800Z,28.49
2024-05-09T07:40:47.349Z,28.74
2024-05-09T07:43:15.568Z,28.80
2024-05-09T07:45:51.356Z,29.04
2024-05-09T07:52:38.035Z,29.29
2024-05-09T07:53:47.661Z,29.15
2024-05-09T07:56:20.276Z,29.36
2024-05-09T07:58:50.429Z,29.70
2024-05-09T08:01:17.925Z,30.00
2024-05-09T08:03:47.256Z,30.46
2024-05-09T08:06:15.112Z,30.46
2024-05-09T08:08:42.628Z,30.55
2024-05-09T08:11:10.122Z,30.83
2024-05-09T08:13:37.925Z,30.71
2024-05-09T08:16:06.328Z,30.29
2024-05-09T08:18:33.997Z,30.36
2024-05-09T08:21:01.541Z,30.88
2024-05-09T08:23:29.088Z,31.17
2024-05-09T08:25:56.510Z,31.31
2024-05-09T08:28:23.894Z,31.57
2024-05-09T08:30:51.562Z,31.55
2024-05-09T08:33:19.299Z,31.31
2024-05-09T08:35:47.193Z,30.60
2024-05-09T08:38:14.658Z,30.20
2024-05-09T08:40:42.361Z,29.82
2024-05-09T08:43:11.885Z,29.81
2024-05-09T08:45:43.956Z,30.01
2024-05-09T08:48:15.128Z,30.51
2024-05-09T08:50:43.935Z,30.82
2024-05-09T08:53:12.220Z,31.17
2024-05-09T08:55:42.644Z,31.20
2024-05-09T08:58:18.969Z,31.30
2024-05-09T09:00:47.107Z,31.40
2024-05-09T09:03:18.749Z,31.35
2024-05-09T09:05:58.912Z,31.46
2024-05-09T09:08:26.346Z,31.79
2024-05-09T09:10:58.010Z,31.84
2024-05-09T09:13:26.151Z,32.05
2024-05-09T09:15:57.520Z,32.18
2024-05-09T09:18:26.263Z,32.25
2024-05-09T09:20:53.914Z,32.10
2024-05-09T09:23:21.426Z,32.28
2024-05-09T09:25:48.752Z,32.41
2024-05-09T09:28:16.213Z,32.58
2024-05-09T09:30:43.674Z,32.29
2024-05-09T09:33:11.582Z,32.47
2024-05-09T09:35:39.834Z,32.66
2024-05-09T09:38:07.436Z,32.41
2024-05-09T09:40:39.200Z,32.34
2024-05-09T09:43:14.408Z,32.27
2024-05-09T09:45:43.668Z,32.39
2024-05-09T09:48:11.988Z,32.58
2024-05-09T09:50:39.515Z,32.96
2024-05-09T09:53:07.328Z,33.25
2024-05-09T09:55:34.807Z,33.44
2024-05-09T09:58:02.136Z,33.32
2024-05-09T10:00:33.097Z,33.39
2024-05-09T10:03:02.186Z,33.24
2024-05-09T10:05:30.024Z,33.15
2024-05-09T10:07:58.116Z,33.01
2024-05-09T10:10:31.858Z,32.78
2024-05-09T10:13:04.665Z,32.70
2024-05-09T10:15:51.443Z,32.72
2024-05-09T10:18:25.064Z,32.59
2024-05-09T10:20:54.514Z,32.59
2024-05-09T10:23:25.546Z,32.83
2024-05-09T10:25:59.833Z,32.83
2024-05-09T10:28:28.295Z,32.92
2024-05-09T10:31:12.711Z,33.11
2024-05-09T10:33:48.471Z,33.18
2024-05-09T10:36:22.224Z,33.33
2024-05-09T10:38:49.948Z,33.40
2024-05-09T10:41:17.599Z,33.25
2024-05-09T10:43:44.982Z,33.38
2024-05-09T10:46:13.336Z,33.57
2024-05-09T10:48:42.623Z,33.13
2024-05-09T10:51:10.310Z,33.24
2024-05-09T10:53:44.942Z,33.39
2024-05-09T10:56:15.700Z,33.39
2024-05-09T10:58:43.229Z,33.29
2024-05-09T11:01:10.877Z,33.30
2024-05-09T11:03:39.256Z,32.99
2024-05-09T11:06:07.659Z,32.43
2024-05-09T11:08:35.256Z,31.96
2024-05-09T11:11:06.436Z,31.72
2024-05-09T11:13:35.978Z,31.75
2024-05-09T11:16:25.871Z,31.52
2024-05-09T11:18:55.539Z,31.67
2024-05-09T11:21:24.181Z,31.89
2024-05-09T11:23:51.617Z,32.06
2024-05-09T11:26:23.303Z,32.13
2024-05-09T11:28:51.668Z,32.31
2024-05-09T11:31:19.504Z,32.39
2024-05-09T11:33:47.350Z,32.41
2024-05-09T11:36:14.919Z,32.19
2024-05-09T11:38:42.295Z,32.04
2024-05-09T11:41:18.184Z,31.66
2024-05-09T11:43:45.812Z,31.39
2024-05-09T11:46:13.443Z,31.12
2024-05-09T11:48:41.132Z,30.74
2024-05-09T11:51:08.603Z,30.67
2024-05-09T11:53:35.970Z,30.81
2024-05-09T11:56:03.567Z,30.86
2024-05-09T11:58:34.376Z,30.73
2024-05-09T12:01:01.990Z,30.61
2024-05-09T12:03:29.633Z,30.30
2024-05-09T12:05:57.311Z,30.19
2024-05-09T12:08:24.763Z,30.32
2024-05-09T12:10:52.311Z,30.60
2024-05-09T12:13:20.048Z,30.71
2024-05-09T12:15:47.637Z,30.66
2024-05-09T12:18:15.104Z,30.88
2024-05-09T12:20:42.871Z,30.75
2024-05-09T12:23:10.840Z,30.77
2024-05-09T12:28:36.155Z,29.83
2024-05-09T12:31:03.892Z,31.24
2024-05-09T12:33:31.463Z,31.21
2024-05-09T12:35:59.052Z,31.02
2024-05-09T12:38:26.514Z,30.77
2024-05-09T12:40:53.918Z,30.59
2024-05-09T12:43:21.541Z,30.50
2024-05-09T12:45:49.132Z,30.08
2024-05-09T12:48:16.856Z,29.87
2024-05-09T12:50:44.445Z,29.71
2024-05-09T12:53:11.840Z,29.75
2024-05-09T12:55:47.954Z,29.64
2024-05-09T12:58:24.441Z,29.50
2024-05-09T13:00:52.467Z,29.04
2024-05-09T13:03:21.058Z,28.60
2024-05-09T13:05:52.059Z,28.69
2024-05-09T13:08:19.886Z,28.68
2024-05-09T13:10:47.633Z,28.81
2024-05-09T13:13:15.347Z,28.95
2024-05-09T13:15:42.865Z,29.01
2024-05-09T13:18:10.407Z,29.00
2024-05-09T13:20:37.993Z,28.78
2024-05-09T13:23:07.304Z,28.49
2024-05-09T13:25:36.498Z,28.26
2024-05-09T13:28:04.932Z,28.40
2024-05-09T13:30:39.983Z,28.50
2024-05-09T13:33:11.558Z,28.45
2024-05-09T13:35:45.575Z,28.25
2024-05-09T13:38:17.667Z,28.28
2024-05-09T13:40:45.335Z,28.13
2024-05-09T13:43:13.474Z,27.84
2024-05-09T13:45:40.985Z,27.83
2024-05-09T13:48:09.811Z,27.90
2024-05-09T13:50:38.866Z,27.96
2024-05-09T13:53:07.703Z,27.84
2024-05-09T13:55:37.587Z,27.75
2024-05-09T13:58:05.090Z,27.88
2024-05-09T14:00:43.826Z,27.80
2024-05-09T14:03:16.616Z,27.58
2024-05-09T14:05:45.541Z,27.59
2024-05-09T14:08:15.117Z,27.50
2024-05-09T14:10:45.054Z,27.34
2024-05-09T14:13:13.633Z,27.09
2024-05-09T14:15:41.482Z,27.03
2024-05-09T14:18:12.598Z,27.17
2024-05-09T14:20:42.403Z,27.11
2024-05-09T14:23:10.234Z,27.14
2024-05-09T14:25:42.530Z,27.21
2024-05-09T14:28:11.636Z,27.16
2024-05-09T14:30:39.850Z,27.12
2024-05-09T14:33:08.646Z,27.09
2024-05-09T14:35:39.859Z,27.00
2024-05-09T14:38:08.395Z,27.04
2024-05-09T14:40:41.381Z,27.04
2024-05-09T14:43:11.758Z,27.03
2024-05-09T14:45:39.590Z,26.97
2024-05-09T14:48:07.937Z,26.87
2024-05-09T14:50:38.646Z,26.69
2024-05-09T14:53:09.330Z,26.51
2024-05-09T14:55:37.694Z,26.60
2024-05-09T14:58:10.911Z,26.68
2024-05-09T15:00:45.748Z,26.67
2024-05-09T15:03:18.656Z,26.52
2024-05-09T15:05:46.729Z,26.43
2024-05-09T15:08:14.188Z,26.31
2024-05-09T15:10:41.469Z,26.23
2024-05-09T15:13:10.481Z,26.13
2024-05-09T15:15:42.449Z,26.07
2024-05-09T15:18:10.016Z,26.13
2024-05-09T15:20:38.136Z,26.12
2024-05-09T15:23:07.070Z,26.10
2024-05-09T15:25:35.503Z,26.04
2024-05-09T15:28:03.948Z,26.00
2024-05-09T15:30:33.509Z,26.01
2024-05-09T15:33:05.759Z,26.02
2024-05-09T15:35:34.148Z,26.02
2024-05-09T15:38:02.813Z,25.99
2024-05-09T15:40:37.674Z,25.89
2024-05-09T15:43:09.136Z,25.65
2024-05-09T15:45:38.077Z,25.55
2024-05-09T15:48:06.121Z,25.48
2024-05-09T15:50:38.822Z,25.36
2024-05-09T15:53:09.942Z,25.11
2024-05-09T15:55:38.380Z,25.02
2024-05-09T15:58:06.677Z,24.96
2024-05-09T16:00:39.204Z,24.92
2024-05-09T16:03:10.789Z,24.96
2024-05-09T16:05:45.555Z,24.97
2024-05-09T16:08:14.307Z,24.96
2024-05-09T16:10:48.109Z,24.91
2024-05-09T16:13:16.503Z,24.92
2024-05-09T16:15:44.634Z,24.92
2024-05-09T16:18:12.287Z,24.93
2024-05-09T16:20:42.128Z,24.68
2024-05-09T16:23:10.923Z,24.54
2024-05-09T16:25:39.487Z,24.34
2024-05-09T16:28:10.096Z,24.28
2024-05-09T16:30:39.757Z,24.23
2024-05-09T16:33:11.648Z,24.15
2024-05-09T16:35:39.597Z,24.15
2024-05-09T16:38:07.285Z,24.09
2024-05-09T16:40:39.716Z,23.86
2024-05-09T16:43:09.907Z,23.73
2024-05-09T16:45:43.806Z,23.69
2024-05-09T16:48:12.031Z,23.70
2024-05-09T16:50:39.440Z,23.61
2024-05-09T16:53:07.309Z,23.51
2024-05-09T16:55:35.561Z,23.50
2024-05-09T16:58:03.831Z,23.45
2024-05-09T17:00:39.660Z,23.33
2024-05-09T17:03:12.849Z,23.43
2024-05-09T17:05:41.756Z,23.24
2024-05-09T17:08:11.248Z,22.96
2024-05-09T17:10:38.845Z,22.88
2024-05-09T17:13:07.736Z,22.76
2024-05-09T17:15:37.106Z,22.76
2024-05-09T17:18:06.252Z,22.67
2024-05-09T17:20:36.399Z,22.63
2024-05-09T17:23:13.316Z,22.69
2024-05-09T17:25:41.601Z,22.61
2024-05-09T17:28:09.181Z,22.26
2024-05-09T17:30:38.777Z,22.33
2024-05-09T17:33:08.995Z,22.32
2024-05-09T17:35:37.471Z,22.17
2024-05-09T17:38:08.505Z,22.06
2024-05-09T17:40:37.836Z,21.80
2024-05-09T17:43:09.069Z,21.66
2024-05-09T17:45:39.509Z,21.51
2024-05-09T17:48:10.932Z,21.35
2024-05-09T17:50:39.603Z,21.17
2024-05-09T17:53:07.957Z,21.08
2024-05-09T17:55:36.074Z,21.09
2024-05-09T17:58:04.762Z,21.09
2024-05-09T18:00:39.689Z,20.84
2024-05-09T18:03:13.494Z,20.68
2024-05-09T18:05:43.083Z,20.52
2024-05-09T18:08:11.739Z,20.35
2024-05-09T18:10:41.060Z,20.15
2024-05-09T18:13:09.309Z,20.07
2024-05-09T18:15:37.502Z,19.89
2024-05-09T18:18:05.841Z,19.72
2024-05-09T18:20:42.260Z,19.63
2024-05-09T18:23:14.495Z,19.52
2024-05-09T18:25:43.235Z,19.42
2024-05-09T18:28:10.564Z,19.37
2024-05-09T18:30:38.713Z,19.37
2024-05-09T18:33:07.960Z,19.27
2024-05-09T18:35:36.343Z,19.25
2024-05-09T18:38:04.967Z,19.16
2024-05-09T18:40:35.962Z,19.07
2024-05-09T18:43:07.567Z,18.85
2024-05-09T18:45:37.805Z,18.71
2024-05-09T18:48:08.145Z,18.70
2024-05-09T18:50:39.233Z,18.70
2024-05-09T18:53:13.907Z,18.67
2024-05-09T18:55:42.050Z,18.58
2024-05-09T18:58:09.666Z,18.51
2024-05-09T19:00:40.041Z,18.50
2024-05-09T19:03:12.763Z,18.41
2024-05-09T19:05:43.546Z,18.26
2024-05-09T19:08:12.198Z,18.00
2024-05-09T19:10:39.901Z,17.96
2024-05-09T19:13:11.728Z,17.80
2024-05-09T19:15:41.950Z,17.80
2024-05-09T19:18:10.376Z,17.76
2024-05-09T19:20:38.754Z,17.65
2024-05-09T19:23:07.016Z,17.64
2024-05-09T19:25:35.688Z,17.52
2024-05-09T19:28:04.472Z,17.35
2024-05-09T19:30:39.052Z,17.24
2024-05-09T19:33:13.445Z,17.16
2024-05-09T19:35:42.596Z,17.23
2024-05-09T19:38:10.493Z,17.16
2024-05-09T19:40:38.037Z,17.16
2024-05-09T19:43:06.356Z,17.22
2024-05-09T19:45:35.143Z,17.09
2024-05-09T19:48:04.336Z,16.98
2024-05-09T19:50:40.048Z,16.96
2024-05-09T19:53:12.404Z,16.91
2024-05-09T19:55:41.202Z,16.96
2024-05-09T19:58:09.400Z,16.87
2024-05-09T20:00:39.534Z,16.86
2024-05-09T20:03:10.694Z,16.74
2024-05-09T20:05:38.825Z,16.69
2024-05-09T20:08:07.341Z,16.60
2024-05-09T20:10:36.224Z,16.63
2024-05-09T20:13:06.272Z,16.65
2024-05-09T20:15:35.448Z,16.68
2024-05-09T20:18:03.633Z,16.62
2024-05-09T20:20:39.006Z,16.52
2024-05-09T20:23:12.661Z,16.42
2024-05-09T20:25:40.553Z,16.41
2024-05-09T20:28:08.151Z,16.45
2024-05-09T20:30:36.442Z,16.39
2024-05-09T20:33:05.468Z,16.25
2024-05-09T20:35:34.873Z,16.10
2024-05-09T20:38:03.716Z,15.92
2024-05-09T20:40:36.011Z,15.91
2024-05-09T20:43:07.603Z,15.91
2024-05-09T20:45:35.508Z,15.72
2024-05-09T20:48:03.495Z,15.61
2024-05-09T20:50:37.832Z,15.50
2024-05-09T20:53:09.589Z,15.43
2024-05-09T20:55:37.148Z,15.52
2024-05-09T20:58:04.999Z,15.51
2024-05-09T21:00:39.541Z,15.42
2024-05-09T21:03:11.493Z,15.27
2024-05-09T21:05:39.731Z,15.31
2024-05-09T21:08:07.497Z,15.22
2024-05-09T21:10:35.879Z,15.14
2024-05-09T21:13:04.141Z,15.12
2024-05-09T21:15:32.192Z,15.04
2024-05-09T21:17:59.751Z,15.26
2024-05-09T21:20:31.420Z,15.39
2024-05-09T21:23:00.939Z,15.38
2024-05-09T21:25:28.635Z,15.43
2024-05-09T21:27:56.157Z,15.00
2024-05-09T21:30:32.582Z,14.91
2024-05-09T21:33:08.824Z,14.85
2024-05-09T21:35:36.960Z,14.75
2024-05-09T21:38:04.563Z,14.79
2024-05-09T21:40:35.127Z,14.74
2024-05-09T21:43:05.131Z,14.72
2024-05-09T21:45:33.620Z,14.59
2024-05-09T21:48:03.595Z,14.65
2024-05-09T21:50:37.175Z,14.61
2024-05-09T21:53:08.269Z,14.44
2024-05-09T21:55:35.865Z,14.34
2024-05-09T21:58:03.731Z,14.35
2024-05-09T22:00:36.861Z,14.29
2024-05-09T22:03:07.088Z,14.00
2024-05-09T22:05:35.329Z,13.92
2024-05-09T22:08:03.426Z,14.01
2024-05-09T22:10:34.584Z,13.95
2024-05-09T22:13:05.404Z,14.13
2024-05-09T22:15:38.240Z,13.87
2024-05-09T22:18:08.042Z,13.94
2024-05-09T22:20:38.892Z,14.02
2024-05-09T22:23:08.208Z,13.89
2024-05-09T22:25:36.992Z,13.47
2024-05-09T22:28:05.249Z,13.44
2024-05-09T22:30:37.249Z,13.56
2024-05-09T22:33:08.298Z,13.35
2024-05-09T22:35:36.950Z,13.72
2024-05-09T22:38:04.363Z,13.78
2024-05-09T22:40:42.149Z,13.79
2024-05-09T22:43:23.381Z,13.63
2024-05-09T22:45:53.963Z,13.25
2024-05-09T22:48:21.936Z,13.03
2024-05-09T22:50:49.499Z,13.09
2024-05-09T22:53:16.984Z,13.10
2024-05-09T22:55:44.349Z,13.03
2024-05-09T22:58:11.725Z,13.07
2024-05-09T23:00:39.212Z,12.95
2024-05-09T23:03:06.814Z,13.00
2024-05-09T23:05:34.571Z,13.04
2024-05-09T23:08:02.630Z,12.97
2024-05-09T23:10:35.897Z,12.86
2024-05-09T23:13:08.581Z,12.94
2024-05-09T23:15:37.384Z,12.98
2024-05-09T23:18:05.466Z,13.01
2024-05-09T23:20:37.987Z,12.99
2024-05-09T23:23:07.908Z,12.90
2024-05-09T23:25:36.672Z,12.90
2024-05-09T23:28:04.498Z,12.88
2024-05-09T23:30:37.229Z,12.96
2024-05-09T23:33:09.297Z,13.07
2024-05-09T23:35:37.049Z,13.03
2024-05-09T23:38:04.653Z,13.12
2024-05-09T23:40:39.122Z,13.03
2024-05-09T23:43:09.781Z,12.99
2024-05-09T23:45:37.714Z,12.88
2024-05-09T23:48:06.110Z,13.02
2024-05-09T23:50:36.802Z,12.90
2024-05-09T23:53:07.636Z,12.92
2024-05-09T23:55:36.321Z,12.98
2024-05-09T23:58:03.879Z,12.91
